Time;durP1;ratioP1;P1;durP2;ratioP2;P2;SDS_P1;SDS_P2;PMS_P1;PMS_P2;Temp;Humidity;BMP_temperature;BMP_pressure;BME280_temperature;BME280_humidity;BME280_pressure;Samples;Min_cycle;Max_cycle;Signal;HPM_P1;HPM_P2
2021/01/15 00:00:04;;;;;;;12.70;7.50;;;;;;;1.93;87.86;100574.00;5034935;28;20405;-70
2021/01/15 00:02:48;;;;;;;11.85;6.60;;;;;;;1.91;87.67;100570.59;5033661;28;20122;-70
2021/01/15 00:05:32;;;;;;;13.98;7.65;;;;;;;1.87;87.02;100574.31;5034791;28;20056;-70
2021/01/15 00:08:16;;;;;;;;;;;;;;;1.86;85.88;100567.38;5035252;28;20135;-67
2021/01/15 00:11:01;;;;;;;16.80;7.40;;;;;;;1.83;87.08;100582.44;5034576;28;19962;-67
2021/01/15 00:13:44;;;;;;;;;;;;;;;1.80;86.81;100575.59;5048020;28;20052;-68
2021/01/15 00:16:31;;;;;;;7.75;5.03;;;;;;;1.80;85.97;100569.47;5034427;28;19924;-68
2021/01/15 00:19:15;;;;;;;9.88;4.88;;;;;;;1.81;86.07;100563.28;5033638;28;20048;-67
2021/01/15 00:21:59;;;;;;;11.50;5.40;;;;;;;1.79;85.46;100571.28;5047604;28;20571;-68
2021/01/15 00:24:43;;;;;;;6.47;4.70;;;;;;;1.79;85.56;100571.28;5019382;28;20107;-70
2021/01/15 00:27:26;;;;;;;10.60;5.03;;;;;;;1.78;85.03;100580.06;5047606;28;20111;-70
2021/01/15 00:30:11;;;;;;;;;;;;;;;1.79;83.27;100581.78;5033845;28;20044;-67
2021/01/15 00:32:54;;;;;;;9.37;4.50;;;;;;;1.76;84.45;100581.94;5034384;28;19920;-70
2021/01/15 00:35:39;;;;;;;9.50;5.00;;;;;;;1.71;83.70;100594.47;5047138;28;20350;-68
2021/01/15 00:38:23;;;;;;;7.93;4.65;;;;;;;1.69;83.24;100591.09;5032998;28;20060;-70
2021/01/15 00:41:08;;;;;;;8.80;4.57;;;;;;;1.68;83.37;100589.38;5034119;28;20048;-68
2021/01/15 00:43:52;;;;;;;8.98;4.20;;;;;;;1.65;84.68;100597.41;5046812;28;20426;-71
2021/01/15 00:46:45;;;;;;;9.55;4.78;;;;;;;1.69;83.64;100596.34;5033774;28;20417;-69
2021/01/15 00:49:29;;;;;;;8.85;4.47;;;;;;;1.66;83.84;100601.75;5033797;28;20087;-69
2021/01/15 00:52:15;;;;;;;7.43;4.40;;;;;;;1.60;83.54;100598.59;5032725;28;20095;-70
2021/01/15 00:55:00;;;;;;;8.38;4.35;;;;;;;1.58;83.05;100614.41;5032678;28;20060;-70
2021/01/15 00:57:44;;;;;;;8.65;4.35;;;;;;;1.59;82.46;100616.16;5033919;28;20056;-69
2021/01/15 01:00:29;;;;;;;7.10;4.38;;;;;;;1.61;82.09;100613.41;5046552;28;20497;-70
2021/01/15 01:03:14;;;;;;;7.15;4.70;;;;;;;1.52;83.01;100609.50;5032728;28;20088;-70
2021/01/15 01:05:57;;;;;;;9.55;4.72;;;;;;;1.54;81.68;100618.16;5033828;28;20051;-70
2021/01/15 01:08:42;;;;;;;6.90;4.45;;;;;;;1.50;82.40;100616.63;5033488;28;20095;-70
2021/01/15 01:11:26;;;;;;;7.88;3.88;;;;;;;1.48;83.07;100623.75;5046551;28;20129;-70
2021/01/15 01:14:10;;;;;;;11.13;4.63;;;;;;;1.46;82.23;100625.56;5018395;28;20083;-69
2021/01/15 01:16:54;;;;;;;5.85;4.13;;;;;;;1.46;82.51;100622.94;5046758;28;20079;-69
2021/01/15 01:19:38;;;;;;;;;;;;;;;1.44;81.81;100622.19;5033019;28;20144;-70
2021/01/15 01:22:22;;;;;;;8.95;5.07;;;;;;;1.45;82.77;100630.94;5033244;28;19920;-70
2021/01/15 01:25:07;;;;;;;7.63;4.45;;;;;;;1.40;83.42;100633.78;5046287;28;20421;-70
2021/01/15 01:27:51;;;;;;;9.48;4.50;;;;;;;1.43;81.74;100630.13;5032475;28;20047;-70
2021/01/15 01:30:37;;;;;;;7.32;4.55;;;;;;;1.44;82.42;100637.94;5046418;28;20147;-70
2021/01/15 01:33:21;;;;;;;5.35;3.85;;;;;;;1.39;81.59;100642.59;5032980;28;20142;-70
2021/01/15 01:36:06;;;;;;;12.57;6.10;;;;;;;1.33;82.29;100650.78;5046230;28;20072;-70
2021/01/15 01:38:50;;;;;;;7.22;4.40;;;;;;;1.37;82.06;100654.94;5032129;28;20087;-69
2021/01/15 01:41:34;;;;;;;;;;;;;;;1.34;81.94;100652.47;5046949;28;20043;-70
2021/01/15 01:44:19;;;;;;;6.38;4.22;;;;;;;1.39;81.14;100647.00;5033294;28;19967;-70
2021/01/15 01:47:03;;;;;;;8.88;4.97;;;;;;;1.34;81.50;100647.22;5033282;28;20161;-69
2021/01/15 01:49:48;;;;;;;7.65;4.45;;;;;;;1.34;81.26;100647.22;5032985;28;20049;-70
2021/01/15 01:52:32;;;;;;;6.80;4.43;;;;;;;1.31;81.08;100655.25;5046089;28;20517;-70
2021/01/15 01:55:18;;;;;;;6.10;4.15;;;;;;;1.27;81.21;100651.06;5033153;28;20406;-69
2021/01/15 01:58:01;;;;;;;6.63;4.00;;;;;;;1.25;81.18;100655.56;5049946;28;20053;-70
2021/01/15 02:00:46;;;;;;;;;;;;;;;1.20;80.54;100661.97;5050419;28;20417;-70
2021/01/15 02:03:30;;;;;;;;;;;;;;;1.17;81.92;100662.13;5036602;28;19924;-70
2021/01/15 02:06:17;;;;;;;5.68;4.07;;;;;;;1.12;81.37;100667.59;5035921;28;20443;-70
2021/01/15 02:09:08;;;;;;;9.13;4.65;;;;;;;1.12;80.50;100672.00;5050179;28;20049;-70
2021/01/15 02:12:02;;;;;;;8.10;4.55;;;;;;;1.14;81.88;100664.91;5035979;28;20044;-70
2021/01/15 02:15:09;;;;;;;9.25;4.53;;;;;;;1.06;80.62;100659.19;5035609;28;20413;-69
2021/01/15 02:17:56;;;;;;;7.15;4.95;;;;;;;1.03;81.60;100665.44;5035717;28;20049;-70
2021/01/15 02:20:53;;;;;;;5.32;3.85;;;;;;;1.06;80.54;100659.19;5035759;28;20056;-70
2021/01/15 02:23:44;;;;;;;7.70;4.20;;;;;;;1.05;81.57;100676.69;5049785;28;20524;-70
2021/01/15 02:26:42;;;;;;;6.63;4.07;;;;;;;1.03;81.23;100668.06;5036703;28;20088;-70
2021/01/15 02:29:28;;;;;;;8.80;4.38;;;;;;;1.00;80.95;100670.84;5049457;28;20084;-69
2021/01/15 02:32:35;;;;;;;8.07;3.35;;;;;;;1.04;79.99;100664.50;5035622;28;20088;-70
2021/01/15 02:35:52;;;;;;;10.57;4.20;;;;;;;1.04;79.50;100668.91;5035149;28;20052;-70
2021/01/15 02:38:43;;;;;;;9.15;4.25;;;;;;;0.98;80.52;100675.31;5035266;28;20048;-70
2021/01/15 02:41:28;;;;;;;6.85;4.30;;;;;;;0.93;80.75;100676.47;5035255;28;20049;-70
2021/01/15 02:44:12;;;;;;;6.63;4.00;;;;;;;0.92;79.25;100670.34;5049204;28;20048;-69
2021/01/15 02:46:59;;;;;;;6.60;3.50;;;;;;;0.95;79.11;100672.81;5049308;28;20052;-70
2021/01/15 02:49:43;;;;;;;8.98;3.90;;;;;;;0.94;79.58;100673.75;5035362;28;20406;-69
2021/01/15 02:52:28;;;;;;;7.65;3.83;;;;;;;0.90;79.71;100674.84;5036013;28;20040;-69
2021/01/15 02:55:12;;;;;;;4.82;3.83;;;;;;;0.92;79.53;100685.25;5035860;28;20076;-70
2021/01/15 02:57:56;;;;;;;6.82;4.03;;;;;;;0.90;80.49;100687.97;5036072;28;20056;-70
2021/01/15 03:00:41;;;;;;;7.85;4.10;;;;;;;0.84;80.16;100685.63;5020845;28;20129;-69
2021/01/15 03:03:51;;;;;;;6.78;4.00;;;;;;;0.87;80.07;100692.50;5020754;28;20056;-70
2021/01/15 03:06:39;;;;;;;8.00;4.43;;;;;;;0.84;79.61;100693.47;5035740;28;20052;-70
2021/01/15 03:09:26;;;;;;;5.85;3.63;;;;;;;0.87;78.80;100697.75;5047728;28;20062;-70
2021/01/15 03:12:10;;;;;;;5.47;4.00;;;;;;;0.86;79.42;100704.75;5048712;28;20047;-70
2021/01/15 03:14:55;;;;;;;7.45;4.07;;;;;;;0.83;79.50;100706.69;5035735;28;20052;-70
2021/01/15 03:17:43;;;;;;;7.15;3.65;;;;;;;0.82;79.77;100705.84;5048882;28;20048;-70
2021/01/15 03:20:28;;;;;;;8.32;3.70;;;;;;;0.84;79.41;100703.97;5034675;28;20414;-70
2021/01/15 03:23:12;;;;;;;5.20;3.42;;;;;;;0.83;79.08;100712.78;5035333;28;20128;-70
2021/01/15 03:25:56;;;;;;;5.22;3.50;;;;;;;0.87;78.63;100711.72;5034436;28;20098;-70
2021/01/15 03:28:40;;;;;;;5.32;3.72;;;;;;;0.87;77.87;100727.47;5035602;28;20059;-70
2021/01/15 03:31:24;;;;;;;6.57;4.15;;;;;;;0.86;78.49;100727.53;5035256;28;20051;-70
2021/01/15 03:34:08;;;;;;;6.85;4.07;;;;;;;0.80;79.95;100727.81;5035000;28;20048;-70
2021/01/15 03:36:52;;;;;;;5.35;3.60;;;;;;;0.78;79.14;100742.78;5048247;28;20056;-70
2021/01/15 03:39:36;;;;;;;7.63;3.80;;;;;;;0.77;79.71;100739.34;5035408;28;20123;-70
2021/01/15 03:42:20;;;;;;;4.30;3.35;;;;;;;0.69;80.52;100740.59;5049880;28;20044;-70
2021/01/15 03:45:04;;;;;;;6.78;3.75;;;;;;;0.69;80.04;100746.72;5035043;28;20140;-70
2021/01/15 03:47:48;;;;;;;5.22;3.50;;;;;;;0.64;78.97;100748.69;5048197;28;20469;-70
2021/01/15 03:50:32;;;;;;;7.05;3.67;;;;;;;0.60;80.13;100746.25;5048595;28;20402;-70
2021/01/15 03:53:17;;;;;;;5.90;4.05;;;;;;;0.51;80.02;100757.19;5048210;28;20115;-70
2021/01/15 03:56:01;;;;;;;5.75;3.50;;;;;;;0.51;80.56;100762.41;5033831;28;20064;-70
2021/01/15 03:58:44;;;;;;;;;;;;;;;0.46;79.78;100760.03;5035492;28;20048;-70
2021/01/15 04:01:29;;;;;;;6.15;3.90;;;;;;;0.44;80.43;100761.00;5034710;28;19924;-70
2021/01/15 04:04:14;;;;;;;7.03;3.17;;;;;;;0.42;79.86;100760.25;5034733;28;20137;-70
2021/01/15 04:06:59;;;;;;;5.18;3.30;;;;;;;0.40;81.61;100772.53;5034862;28;20530;-70
2021/01/15 04:09:43;;;;;;;7.05;3.88;;;;;;;0.35;81.13;100767.50;5034728;28;20095;-70
2021/01/15 04:12:29;;;;;;;6.35;4.03;;;;;;;0.39;79.59;100779.59;5033480;28;20099;-70
2021/01/15 04:15:15;;;;;;;7.22;4.00;;;;;;;0.36;80.33;100784.09;5047526;28;20183;-70
2021/01/15 04:17:59;;;;;;;5.38;3.70;;;;;;;0.31;80.49;100776.44;5034687;28;20144;-70
2021/01/15 04:20:43;;;;;;;7.80;3.80;;;;;;;0.24;80.34;100780.25;5032892;28;20505;-70
2021/01/15 04:23:27;;;;;;;5.57;3.40;;;;;;;0.22;79.79;100781.25;5034542;28;20055;-70
2021/01/15 04:26:18;;;;;;;;;;;;;;;0.13;80.74;100784.28;5048033;28;20115;-70
2021/01/15 04:29:02;;;;;;;6.82;3.95;;;;;;;0.16;80.46;100778.88;5033498;28;20381;-70
2021/01/15 04:31:47;;;;;;;7.38;4.03;;;;;;;0.13;80.67;100787.72;5033276;28;20124;-70
2021/01/15 04:34:31;;;;;;;7.40;4.22;;;;;;;0.17;79.95;100797.19;5033881;28;20513;-70
2021/01/15 04:37:15;;;;;;;;;;;;;;;0.13;79.70;100795.59;5047854;28;20052;-69
2021/01/15 04:39:59;;;;;;;8.52;4.10;;;;;;;0.07;80.17;100793.25;5034039;28;19967;-70
2021/01/15 04:42:44;;;;;;;;;;;;;;;0.07;80.33;100805.50;5047621;28;20111;-70
2021/01/15 04:45:28;;;;;;;8.68;4.25;;;;;;;0.06;80.35;100812.53;5033144;28;19923;-70
2021/01/15 04:48:13;;;;;;;;;;;;;;;0.06;79.58;100807.28;5047668;28;20076;-70
2021/01/15 04:50:58;;;;;;;7.20;3.55;;;;;;;0.06;80.15;100815.16;5033095;28;20376;-70
2021/01/15 04:53:44;;;;;;;7.32;4.50;;;;;;;-0.02;80.21;100814.63;5047018;28;20406;-70
2021/01/15 04:56:34;;;;;;;6.57;4.10;;;;;;;-0.07;80.82;100815.72;5046734;28;20140;-70
2021/01/15 04:59:18;;;;;;;6.78;4.40;;;;;;;-0.13;81.08;100815.13;5033209;28;20148;-70
2021/01/15 05:02:07;;;;;;;8.38;4.05;;;;;;;-0.13;80.79;100821.22;5033834;28;20191;-70
2021/01/15 05:04:56;;;;;;;8.32;4.65;;;;;;;-0.09;79.96;100824.56;5032799;28;20056;-70
2021/01/15 05:07:50;;;;;;;6.57;3.78;;;;;;;-0.10;80.17;100825.50;5046537;28;20047;-70
2021/01/15 05:10:37;;;;;;;6.05;3.72;;;;;;;-0.11;80.30;100835.09;5046784;28;20053;-70
2021/01/15 05:13:22;;;;;;;6.65;4.13;;;;;;;-0.13;80.27;100839.56;5046391;28;20055;-70
2021/01/15 05:16:08;;;;;;;7.35;4.05;;;;;;;-0.16;79.88;100836.22;5033398;28;20099;-70
2021/01/15 05:18:53;;;;;;;8.88;5.18;;;;;;;-0.16;80.34;100837.06;5033338;28;20052;-70
2021/01/15 05:21:37;;;;;;;5.78;4.10;;;;;;;-0.22;80.19;100852.19;5046612;28;20460;-70
2021/01/15 05:24:21;;;;;;;8.20;4.53;;;;;;;-0.27;80.60;100847.16;5033119;28;20433;-70
2021/01/15 05:30:22;;;;;;;9.15;4.90;;;;;;;-0.30;81.23;100851.66;5044160;28;20056;-70
2021/01/15 05:33:11;;;;;;;8.93;4.53;;;;;;;-0.31;81.00;100863.06;5032831;28;20049;-70
2021/01/15 05:35:56;;;;;;;8.30;4.88;;;;;;;-0.42;82.09;100871.31;5032379;28;20053;-70
2021/01/15 05:38:39;;;;;;;;;;;;;;;-0.42;82.07;100875.72;5046597;28;20099;-70
2021/01/15 05:41:24;;;;;;;8.57;5.20;;;;;;;-0.45;82.42;100878.47;5033026;28;19919;-70
2021/01/15 05:44:10;;;;;;;8.70;5.07;;;;;;;-0.47;82.90;100889.00;5032277;28;20053;-70
2021/01/15 05:46:55;;;;;;;10.30;5.38;;;;;;;-0.52;83.60;100896.19;5033301;28;20504;-70
2021/01/15 05:49:54;;;;;;;9.95;5.35;;;;;;;-0.47;83.34;100903.84;5033031;28;20079;-70
2021/01/15 05:52:55;;;;;;;8.18;5.13;;;;;;;-0.51;84.06;100913.63;5046357;28;20065;-69
2021/01/15 05:55:53;;;;;;;7.95;4.85;;;;;;;-0.47;82.54;100915.19;5032996;28;20048;-70
2021/01/15 05:58:37;;;;;;;8.00;5.25;;;;;;;-0.45;83.34;100917.78;5032040;28;20103;-70
2021/01/15 06:01:21;;;;;;;;;;;;;;;-0.46;83.77;100911.66;5033544;28;20103;-70
2021/01/15 06:04:05;;;;;;;12.23;5.68;;;;;;;-0.46;84.43;100922.13;5031858;28;20508;-70
2021/01/15 06:06:50;;;;;;;9.43;5.70;;;;;;;-0.48;85.04;100923.97;5032833;28;20413;-69
2021/01/15 06:09:36;;;;;;;10.18;5.40;;;;;;;-0.45;83.07;100928.25;5031836;28;20102;-70
2021/01/15 06:12:20;;;;;;;9.10;5.32;;;;;;;-0.40;83.37;100931.53;5031805;28;20576;-69
2021/01/15 06:15:06;;;;;;;12.25;6.07;;;;;;;-0.43;83.83;100939.50;5032022;28;20053;-70
2021/01/15 06:17:52;;;;;;;11.88;6.10;;;;;;;-0.48;84.28;100952.78;5032002;28;20111;-69
2021/01/15 06:20:36;;;;;;;10.48;5.60;;;;;;;-0.52;85.28;100955.56;5045987;28;20061;-70
2021/01/15 06:23:20;;;;;;;8.40;5.53;;;;;;;-0.55;85.49;100958.31;5045634;28;20056;-70
2021/01/15 06:26:06;;;;;;;9.30;5.30;;;;;;;-0.56;85.53;100954.84;5032716;28;20052;-70
2021/01/15 06:29:18;;;;;;;9.57;5.93;;;;;;;-0.55;85.73;100968.78;5031928;28;20048;-70
2021/01/15 06:32:03;;;;;;;11.30;6.65;;;;;;;-0.51;86.09;100965.13;5033063;28;20049;-69
2021/01/15 06:34:48;;;;;;;11.35;6.65;;;;;;;-0.57;86.40;100966.22;5032281;28;20096;-70
2021/01/15 06:37:34;;;;;;;13.48;6.43;;;;;;;-0.53;86.63;100972.19;5031553;28;20107;-70
2021/01/15 06:40:19;;;;;;;16.63;7.65;;;;;;;-0.51;87.00;100973.00;5031823;28;20107;-69
2021/01/15 06:43:10;;;;;;;13.65;6.85;;;;;;;-0.56;87.75;100973.16;5034175;28;20135;-70
2021/01/15 06:45:56;;;;;;;11.13;6.35;;;;;;;-0.59;87.87;100972.41;5049498;28;20056;-70
2021/01/15 06:48:39;;;;;;;12.07;6.70;;;;;;;-0.66;89.01;100981.44;5035344;28;20060;-70
2021/01/15 06:51:23;;;;;;;;;;;;;;;-0.67;89.61;100984.94;5036666;28;20088;-70
2021/01/15 06:54:10;;;;;;;13.45;7.60;;;;;;;-0.64;89.26;100995.31;5035136;28;19920;-70
2021/01/15 06:57:13;;;;;;;12.07;6.72;;;;;;;-0.71;89.99;100999.06;5035881;28;20527;-70
2021/01/15 06:59:59;;;;;;;9.60;6.70;;;;;;;-0.75;89.72;100997.47;5049309;28;20086;-70
2021/01/15 07:03:22;;;;;;;12.95;6.72;;;;;;;-0.81;89.98;101002.94;5036258;28;20040;-70
2021/01/15 07:06:17;;;;;;;12.65;6.63;;;;;;;-0.83;90.48;101005.59;5035845;28;20041;-70
2021/01/15 07:09:04;;;;;;;13.45;7.03;;;;;;;-0.78;90.08;101010.66;5048786;28;20040;-70
2021/01/15 07:11:48;;;;;;;12.68;6.80;;;;;;;-0.86;90.96;100999.63;5048850;28;20067;-71
2021/01/15 07:14:54;;;;;;;11.50;6.97;;;;;;;-0.86;91.71;101015.34;5048685;28;20051;-70
2021/01/15 07:17:44;;;;;;;12.23;7.18;;;;;;;-0.89;92.21;101013.69;5035779;28;20071;-70
2021/01/15 07:20:33;;;;;;;19.63;10.95;;;;;;;-0.84;91.93;101013.53;5048601;28;20053;-70
2021/01/15 07:23:35;;;;;;;153.43;65.65;;;;;;;-0.80;91.27;101015.09;5034446;28;20107;-70
2021/01/15 07:26:22;;;;;;;32.92;18.38;;;;;;;-0.83;91.77;101025.69;5034687;28;20053;-70
2021/01/15 07:29:12;;;;;;;25.27;18.08;;;;;;;-0.85;92.29;101027.53;5035384;28;20422;-70
2021/01/15 07:31:59;;;;;;;21.30;14.05;;;;;;;-0.81;92.12;101031.72;5035326;28;20095;-70
2021/01/15 07:34:46;;;;;;;24.65;16.42;;;;;;;-0.84;93.23;101040.53;5034373;28;20076;-70
2021/01/15 07:37:31;;;;;;;56.47;33.33;;;;;;;-0.80;93.28;101043.91;5020286;28;20146;-70
2021/01/15 07:40:18;;;;;;;80.97;49.65;;;;;;;-0.74;92.85;101047.16;5035279;28;20583;-70
2021/01/15 07:43:02;;;;;;;23.27;14.60;;;;;;;-0.68;92.85;101056.53;5034080;28;20049;-70
2021/01/15 07:45:46;;;;;;;19.95;12.00;;;;;;;-0.65;92.23;101059.91;5034380;28;20106;-70
2021/01/15 07:48:31;;;;;;;24.00;14.10;;;;;;;-0.59;92.63;101066.69;5035031;28;20092;-70
2021/01/15 07:51:15;;;;;;;;;;;;;;;-0.47;91.35;101063.63;5035607;28;20088;-68
2021/01/15 07:53:59;;;;;;;22.77;14.95;;;;;;;-0.38;91.67;101066.78;5033480;28;19920;-70
2021/01/15 07:56:43;;;;;;;;;;;;;;;-0.29;90.98;101076.03;5034296;28;20099;-70
2021/01/15 07:59:28;;;;;;;103.00;52.25;;;;;;;-0.29;90.67;101076.03;5034780;28;19920;-70
2021/01/15 08:02:20;;;;;;;35.13;20.70;;;;;;;-0.17;89.09;101083.44;5033957;28;20071;-70
2021/01/15 08:05:04;;;;;;;66.40;39.65;;;;;;;-0.10;88.58;101092.78;5033663;28;20125;-70
2021/01/15 08:07:48;;;;;;;22.08;12.75;;;;;;;-0.07;87.34;101094.38;5033732;28;20055;-70
2021/01/15 08:10:32;;;;;;;;;;;;;;;0.03;87.54;101095.72;5034302;28;20051;-70
2021/01/15 08:13:22;;;;;;;17.85;12.10;;;;;;;0.04;86.96;101097.44;5034572;28;19959;-71
2021/01/15 08:16:06;;;;;;;15.82;10.10;;;;;;;0.20;86.90;101108.19;5034706;28;20044;-69
2021/01/15 08:18:50;;;;;;;17.20;11.30;;;;;;;0.29;85.33;101119.19;5034418;28;20049;-70
2021/01/15 08:21:35;;;;;;;;;;;;;;;0.37;84.80;101116.25;5033688;28;20044;-70
2021/01/15 08:24:19;;;;;;;15.82;9.50;;;;;;;0.46;84.68;101124.63;5034375;28;19924;-70
2021/01/15 08:27:03;;;;;;;22.05;13.73;;;;;;;0.62;83.79;101130.97;5047370;28;20556;-70
2021/01/15 08:29:47;;;;;;;;;;;;;;;0.72;83.69;101134.09;5033912;28;20123;-70
2021/01/15 08:32:40;;;;;;;18.73;12.45;;;;;;;0.88;83.11;101141.28;5033458;28;19920;-70
2021/01/15 08:35:29;;;;;;;40.42;21.58;;;;;;;0.94;81.84;101150.66;5032918;28;20406;-70
2021/01/15 08:38:13;;;;;;;26.17;13.25;;;;;;;1.13;81.67;101143.75;5033284;28;20121;-70
2021/01/15 08:40:59;;;;;;;19.95;11.73;;;;;;;1.25;80.00;101151.94;5032976;28;20102;-70
2021/01/15 08:43:43;;;;;;;29.55;13.90;;;;;;;1.50;78.98;101151.75;5034079;28;20123;-70
2021/01/15 08:46:28;;;;;;;22.70;11.50;;;;;;;1.82;77.25;101149.41;5033903;28;20057;-70
2021/01/15 08:49:13;;;;;;;15.52;8.48;;;;;;;2.35;74.41;101154.84;5032862;28;20053;-70
2021/01/15 08:51:57;;;;;;;;;;;;;;;2.92;71.87;101155.56;5033231;28;20072;-70
2021/01/15 08:54:41;;;;;;;13.45;6.72;;;;;;;3.44;69.29;101152.88;5032709;28;19939;-70
2021/01/15 08:57:28;;;;;;;13.07;7.57;;;;;;;4.21;66.53;101164.59;5047108;28;20100;-70
2021/01/15 09:00:18;;;;;;;11.48;7.15;;;;;;;4.75;63.17;101172.13;5033621;28;20052;-69
2021/01/15 09:03:06;;;;;;;12.68;7.57;;;;;;;5.12;60.90;101164.69;5033519;28;20045;-70
2021/01/15 09:05:50;;;;;;;12.23;7.35;;;;;;;5.61;58.84;101163.47;5046074;28;20145;-70
2021/01/15 09:08:34;;;;;;;10.63;7.53;;;;;;;6.26;57.89;101168.31;5046936;28;20107;-70
2021/01/15 09:11:18;;;;;;;14.30;7.07;;;;;;;7.02;55.04;101173.94;5033603;28;20410;-70
2021/01/15 09:14:04;;;;;;;20.58;11.73;;;;;;;8.31;49.92;101170.31;5032353;28;20573;-70
2021/01/15 09:16:49;;;;;;;27.92;18.38;;;;;;;9.53;47.60;101162.94;5033377;28;20124;-71
2021/01/15 09:19:35;;;;;;;18.35;13.45;;;;;;;10.73;44.31;101170.22;5032845;28;20195;-71
2021/01/15 09:22:19;;;;;;;10.05;8.15;;;;;;;11.52;41.90;101173.38;5032312;28;20625;-71
2021/01/15 09:25:04;;;;;;;35.05;23.48;;;;;;;12.42;38.91;101170.88;5033170;28;20072;-71
2021/01/15 09:27:48;;;;;;;60.20;38.00;;;;;;;11.69;39.26;101188.00;5018540;28;20114;-71
2021/01/15 09:30:31;;;;;;;29.60;23.70;;;;;;;12.41;38.71;101179.84;5033297;28;20048;-71
2021/01/15 09:33:15;;;;;;;22.90;18.08;;;;;;;12.81;38.04;101187.91;5032245;28;20049;-72
2021/01/15 09:36:00;;;;;;;28.95;22.60;;;;;;;14.16;36.16;101184.19;5033432;28;20190;-71
2021/01/15 09:38:44;;;;;;;43.58;33.65;;;;;;;15.63;33.44;101190.06;5032428;28;20044;-71
2021/01/15 09:41:28;;;;;;;50.13;36.50;;;;;;;16.16;30.74;101190.81;5033305;28;20092;-72
2021/01/15 09:44:15;;;;;;;15.10;10.35;;;;;;;17.18;29.95;101201.47;5033121;22;20061;-64
2021/01/15 09:47:01;;;;;;;56.20;35.90;;;;;;;17.62;28.81;101204.78;5012510;28;20061;-66
2021/01/15 09:49:44;;;;;;;39.60;25.33;;;;;;;18.37;28.45;101202.59;5013309;28;20434;-66
2021/01/15 09:52:29;;;;;;;29.48;22.52;;;;;;;18.39;27.67;101208.66;5012569;28;20048;-66
2021/01/15 09:55:13;;;;;;;21.77;17.48;;;;;;;19.67;26.44;101203.56;4993887;28;20053;-66
2021/01/15 09:57:58;;;;;;;34.15;25.17;;;;;;;19.64;25.71;101206.63;4978846;28;20061;-66
2021/01/15 10:00:42;;;;;;;30.48;24.98;;;;;;;19.98;25.84;101212.44;4993497;28;20053;-67
2021/01/15 10:03:26;;;;;;;46.35;34.22;;;;;;;19.58;25.68;101218.16;4992735;28;20181;-67
2021/01/15 10:06:17;;;;;;;16.13;14.25;;;;;;;20.39;24.12;101208.38;4992596;28;20526;-66
2021/01/15 10:09:02;;;;;;;15.10;12.35;;;;;;;20.85;23.65;101209.03;4979149;28;20105;-67
2021/01/15 10:11:47;;;;;;;38.40;32.20;;;;;;;20.86;23.48;101208.03;4993487;28;20472;-66
2021/01/15 10:14:31;;;;;;;14.07;12.23;;;;;;;21.57;23.10;101217.09;4992397;28;20474;-66
2021/01/15 10:17:15;;;;;;;25.65;21.77;;;;;;;21.98;22.11;101213.56;4994135;28;20145;-66
2021/01/15 10:19:59;;;;;;;;;;;;;;;21.85;21.54;101208.00;4997910;28;20077;-66
2021/01/15 10:22:43;;;;;;;18.10;15.33;;;;;;;21.18;23.11;101211.19;4996376;28;20361;-66
2021/01/15 10:25:27;;;;;;;23.63;19.77;;;;;;;21.41;22.92;101223.59;4997106;28;20145;-67
2021/01/15 10:28:11;;;;;;;15.05;13.25;;;;;;;21.55;22.78;101221.84;4996101;28;20056;-67
2021/01/15 10:30:55;;;;;;;;;;;;;;;21.69;22.40;101227.25;4997573;28;20053;-67
2021/01/15 10:33:40;;;;;;;22.42;19.05;;;;;;;22.37;21.58;101218.47;4996915;28;20402;-66
2021/01/15 10:36:25;;;;;;;21.13;18.48;;;;;;;22.51;21.87;101229.28;4997199;28;20048;-67
2021/01/15 10:39:10;;;;;;;17.08;14.68;;;;;;;23.19;21.04;101223.88;4995894;28;20097;-66
2021/01/15 10:41:55;;;;;;;15.48;12.68;;;;;;;23.02;21.41;101222.47;4996094;28;20052;-67
2021/01/15 10:44:39;;;;;;;16.23;14.63;;;;;;;22.46;20.66;101220.03;4995633;28;20467;-67
2021/01/15 10:47:22;;;;;;;;;;;;;;;22.39;21.50;101224.56;4982634;28;20120;-66
2021/01/15 10:50:08;;;;;;;17.33;15.07;;;;;;;23.05;20.83;101226.69;4996690;28;19937;-67
2021/01/15 10:52:55;;;;;;;14.38;12.07;;;;;;;23.54;20.52;101222.72;4996814;28;20471;-66
2021/01/15 10:55:39;;;;;;;13.63;11.63;;;;;;;23.65;20.39;101230.28;4996645;28;20057;-67
2021/01/15 10:58:23;;;;;;;;;;;;;;;23.23;20.19;101224.31;4969133;28;20057;-67
2021/01/15 11:01:07;;;;;;;19.45;16.05;;;;;;;23.74;19.21;101220.06;4996373;28;19925;-66
2021/01/15 11:03:51;;;;;;;;;;;;;;;23.95;19.42;101231.63;4995917;28;20056;-67
2021/01/15 11:06:39;;;;;;;11.23;9.98;;;;;;;24.23;19.66;101230.44;4995674;28;19924;-64
2021/01/15 11:09:24;;;;;;;9.10;7.50;;;;;;;24.20;19.78;101233.53;4995874;28;20095;-67
2021/01/15 11:12:09;;;;;;;10.52;8.40;;;;;;;24.47;18.73;101231.66;5009233;28;20104;-67
2021/01/15 11:14:53;;;;;;;13.10;10.75;;;;;;;24.47;18.97;101237.09;4996668;28;20105;-67
2021/01/15 11:17:38;;;;;;;;;;;;;;;24.61;18.63;101236.09;4999455;28;20061;-66
2021/01/15 11:20:24;;;;;;;;;;;;;;;24.33;19.42;101238.16;4999005;28;20393;-66
2021/01/15 11:23:08;;;;;;;15.75;11.82;;;;;;;24.72;19.37;101235.44;4998736;28;19940;-67
2021/01/15 11:25:52;;;;;;;9.25;8.25;;;;;;;25.40;18.18;101237.56;4999095;28;20470;-67
2021/01/15 11:28:37;;;;;;;13.48;10.63;;;;;;;25.18;18.33;101238.88;4997851;28;20057;-67
2021/01/15 11:31:21;;;;;;;11.15;8.43;;;;;;;25.22;18.71;101243.72;4997006;28;20410;-66
2021/01/15 11:34:05;;;;;;;9.68;7.90;;;;;;;24.35;18.85;101238.78;4997073;28;20533;-66
2021/01/15 11:36:50;;;;;;;12.75;10.30;;;;;;;24.98;18.36;101235.38;4983984;28;20049;-66
2021/01/15 11:39:34;;;;;;;;;;;;;;;24.62;18.38;101235.03;4997452;28;20092;-66
2021/01/15 11:42:18;;;;;;;11.75;7.72;;;;;;;24.42;18.97;101235.00;4997969;28;20328;-66
2021/01/15 11:45:01;;;;;;;;;;;;;;;22.91;20.10;101247.53;4998698;28;20395;-66
2021/01/15 11:47:50;;;;;;;10.90;7.93;;;;;;;23.53;20.04;101242.81;4983480;28;20033;-64
2021/01/15 11:50:34;;;;;;;7.82;7.05;;;;;;;23.28;19.80;101244.41;4997912;28;20057;-66
2021/01/15 11:53:18;;;;;;;;;;;;;;;23.00;19.92;101235.44;4997761;28;20066;-66
2021/01/15 11:56:03;;;;;;;10.40;8.20;;;;;;;22.94;20.02;101233.53;4998052;28;20000;-67
2021/01/15 11:58:47;;;;;;;10.60;8.55;;;;;;;21.69;21.27;101231.84;4997046;28;20104;-66
2021/01/15 12:01:31;;;;;;;10.02;8.32;;;;;;;21.62;21.53;101231.75;5010275;28;20101;-66
2021/01/15 12:04:15;;;;;;;;;;;;;;;20.88;22.34;101233.09;4998368;28;20053;-66
2021/01/15 12:07:00;;;;;;;11.02;9.20;;;;;;;22.15;21.18;101227.69;4997937;28;19921;-66
2021/01/15 12:09:44;;;;;;;7.80;6.65;;;;;;;21.35;21.24;101229.75;4997447;28;20197;-66
2021/01/15 12:12:28;;;;;;;;;;;;;;;18.64;24.36;101234.59;5011284;28;20110;-66
2021/01/15 12:15:13;;;;;;;16.98;9.18;;;;;;;17.87;25.94;101231.63;4997217;28;20294;-66
2021/01/15 12:17:57;;;;;;;11.25;7.25;;;;;;;17.65;26.22;101237.66;4996367;28;20101;-66
2021/01/15 12:20:41;;;;;;;9.82;8.20;;;;;;;19.08;25.15;101233.94;4996843;28;20057;-66
2021/01/15 12:23:25;;;;;;;9.27;7.45;;;;;;;19.64;25.18;101227.41;4996634;28;20100;-66
2021/01/15 12:26:09;;;;;;;10.32;7.88;;;;;;;20.58;23.00;101223.22;4997748;28;20057;-66
2021/01/15 12:28:54;;;;;;;12.75;9.05;;;;;;;20.52;23.04;101234.81;5010697;28;20062;-66
2021/01/15 12:31:38;;;;;;;9.32;7.45;;;;;;;20.91;22.01;101230.03;4996817;28;20045;-66
2021/01/15 12:34:22;;;;;;;8.85;6.82;;;;;;;17.87;25.44;101242.41;4997743;28;20061;-66
2021/01/15 12:37:06;;;;;;;8.57;6.25;;;;;;;18.56;25.46;101246.25;4996655;28;20057;-66
2021/01/15 12:39:50;;;;;;;;;;;;;;;17.70;25.32;101238.00;4999103;28;20053;-66
2021/01/15 12:42:34;;;;;;;7.57;6.43;;;;;;;17.95;25.26;101250.50;4997802;28;20382;-66
2021/01/15 12:45:18;;;;;;;;;;;;;;;17.32;26.20;101235.84;4999569;28;20056;-66
2021/01/15 12:48:03;;;;;;;10.43;6.43;;;;;;;17.46;26.52;101246.03;4997833;28;19936;-66
2021/01/15 12:50:47;;;;;;;7.07;5.38;;;;;;;17.85;25.69;101247.13;5009660;28;20048;-66
2021/01/15 12:53:35;;;;;;;8.15;6.22;;;;;;;18.21;25.50;101237.69;4996602;28;20527;-66
2021/01/15 12:56:20;;;;;;;9.65;7.30;;;;;;;16.93;27.22;101245.50;4998100;28;20092;-66
2021/01/15 12:59:03;;;;;;;10.50;8.68;;;;;;;17.26;26.14;101247.31;5010859;28;20084;-65
2021/01/15 13:01:47;;;;;;;18.63;16.80;;;;;;;17.43;26.12;101246.38;4995901;28;20534;-66